sensor_id;sensor_type;location;lat;lon;timestamp;temperature;humidity
34542;DHT22;20784;51.332;12.410;2022-09-24T00:01:10;12.70;99.90
34542;DHT22;20784;51.332;12.410;2022-09-24T00:03:37;12.60;99.90
34542;DHT22;20784;51.332;12.410;2022-09-24T00:06:04;12.50;99.90
34542;DHT22;20784;51.332;12.410;2022-09-24T00:08:30;12.50;99.90
34542;DHT22;20784;51.332;12.410;2022-09-24T00:11:00;12.60;99.90
34542;DHT22;20784;51.332;12.410;2022-09-24T00:13:26;12.40;99.90
34542;DHT22;20784;51.332;12.410;2022-09-24T00:15:52;12.40;99.90
34542;DHT22;20784;51.332;12.410;2022-09-24T00:18:18;12.40;99.90
34542;DHT22;20784;51.332;12.410;2022-09-24T00:20:46;12.40;99.90
34542;DHT22;20784;51.332;12.410;2022-09-24T00:23:12;12.40;99.90
34542;DHT22;20784;51.332;12.410;2022-09-24T00:25:45;12.40;99.90
34542;DHT22;20784;51.332;12.410;2022-09-24T00:28:30;12.40;99.90
34542;DHT22;20784;51.332;12.410;2022-09-24T00:30:56;12.30;99.90
34542;DHT22;20784;51.332;12.410;2022-09-24T00:33:23;12.30;99.90
34542;DHT22;20784;51.332;12.410;2022-09-24T00:35:49;12.30;99.90
34542;DHT22;20784;51.332;12.410;2022-09-24T00:38:16;12.30;99.90
34542;DHT22;20784;51.332;12.410;2022-09-24T00:40:42;12.30;99.90
34542;DHT22;20784;51.332;12.410;2022-09-24T00:45:52;12.30;99.90
34542;DHT22;20784;51.332;12.410;2022-09-24T00:48:19;12.30;99.90
34542;DHT22;20784;51.332;12.410;2022-09-24T00:50:45;12.30;99.90
34542;DHT22;20784;51.332;12.410;2022-09-24T00:53:20;12.30;99.90
34542;DHT22;20784;51.332;12.410;2022-09-24T00:55:52;12.30;99.90
34542;DHT22;20784;51.332;12.410;2022-09-24T00:58:18;12.30;99.90
34542;DHT22;20784;51.332;12.410;2022-09-24T01:00:50;12.20;99.90
34542;DHT22;20784;51.332;12.410;2022-09-24T01:03:19;12.20;99.90
34542;DHT22;20784;51.332;12.410;2022-09-24T01:05:46;12.20;99.90
34542;DHT22;20784;51.332;12.410;2022-09-24T01:08:13;12.20;99.90
34542;DHT22;20784;51.332;12.410;2022-09-24T01:11:04;12.20;99.90
34542;DHT22;20784;51.332;12.410;2022-09-24T01:22:02;12.20;99.90
34542;DHT22;20784;51.332;12.410;2022-09-24T01:27:38;12.20;99.90
34542;DHT22;20784;51.332;12.410;2022-09-24T01:30:09;12.30;99.90
34542;DHT22;20784;51.332;12.410;2022-09-24T01:32:39;12.20;99.90
34542;DHT22;20784;51.332;12.410;2022-09-24T01:35:12;12.20;99.90
34542;DHT22;20784;51.332;12.410;2022-09-24T01:37:44;12.20;99.90
34542;DHT22;20784;51.332;12.410;2022-09-24T01:40:11;12.20;99.90
34542;DHT22;20784;51.332;12.410;2022-09-24T01:42:41;12.20;99.90
34542;DHT22;20784;51.332;12.410;2022-09-24T01:45:08;12.10;99.90
34542;DHT22;20784;51.332;12.410;2022-09-24T01:47:38;12.20;99.90
34542;DHT22;20784;51.332;12.410;2022-09-24T01:50:07;12.10;99.90
34542;DHT22;20784;51.332;12.410;2022-09-24T01:52:40;12.10;99.90
34542;DHT22;20784;51.332;12.410;2022-09-24T01:55:09;12.10;99.90
34542;DHT22;20784;51.332;12.410;2022-09-24T01:57:42;12.00;99.90
34542;DHT22;20784;51.332;12.410;2022-09-24T02:00:19;12.10;99.90
34542;DHT22;20784;51.332;12.410;2022-09-24T02:10:29;12.00;99.90
34542;DHT22;20784;51.332;12.410;2022-09-24T02:13:02;12.00;99.90
34542;DHT22;20784;51.332;12.410;2022-09-24T02:15:34;12.00;99.90
34542;DHT22;20784;51.332;12.410;2022-09-24T02:18:10;11.90;99.90
34542;DHT22;20784;51.332;12.410;2022-09-24T02:20:41;11.80;99.90
34542;DHT22;20784;51.332;12.410;2022-09-24T02:23:09;11.90;99.90
34542;DHT22;20784;51.332;12.410;2022-09-24T02:25:47;11.90;99.90
34542;DHT22;20784;51.332;12.410;2022-09-24T02:28:16;11.90;99.90
34542;DHT22;20784;51.332;12.410;2022-09-24T02:31:05;11.90;99.90
34542;DHT22;20784;51.332;12.410;2022-09-24T02:33:31;12.00;99.90
34542;DHT22;20784;51.332;12.410;2022-09-24T02:36:39;11.90;99.90
34542;DHT22;20784;51.332;12.410;2022-09-24T02:39:06;12.00;99.90
34542;DHT22;20784;51.332;12.410;2022-09-24T02:41:33;11.90;99.90
34542;DHT22;20784;51.332;12.410;2022-09-24T02:43:59;12.00;99.90
34542;DHT22;20784;51.332;12.410;2022-09-24T02:46:25;11.90;99.90
34542;DHT22;20784;51.332;12.410;2022-09-24T02:48:53;11.90;99.90
34542;DHT22;20784;51.332;12.410;2022-09-24T02:51:28;11.90;99.90
34542;DHT22;20784;51.332;12.410;2022-09-24T02:53:54;11.90;99.90
34542;DHT22;20784;51.332;12.410;2022-09-24T02:56:24;11.80;99.90
34542;DHT22;20784;51.332;12.410;2022-09-24T02:58:53;11.80;99.90
34542;DHT22;20784;51.332;12.410;2022-09-24T03:01:21;11.90;99.90
34542;DHT22;20784;51.332;12.410;2022-09-24T03:03:48;12.00;99.90
34542;DHT22;20784;51.332;12.410;2022-09-24T03:06:14;11.90;99.90
34542;DHT22;20784;51.332;12.410;2022-09-24T03:08:40;11.90;99.90
34542;DHT22;20784;51.332;12.410;2022-09-24T03:11:11;11.90;99.90
34542;DHT22;20784;51.332;12.410;2022-09-24T03:13:38;12.00;99.90
34542;DHT22;20784;51.332;12.410;2022-09-24T03:16:04;12.00;99.90
34542;DHT22;20784;51.332;12.410;2022-09-24T03:18:30;11.90;99.90
34542;DHT22;20784;51.332;12.410;2022-09-24T03:20:56;11.90;99.90
34542;DHT22;20784;51.332;12.410;2022-09-24T03:23:22;11.90;99.90
34542;DHT22;20784;51.332;12.410;2022-09-24T03:25:48;11.90;99.90
34542;DHT22;20784;51.332;12.410;2022-09-24T03:28:13;11.80;99.90
34542;DHT22;20784;51.332;12.410;2022-09-24T03:30:39;11.80;99.90
34542;DHT22;20784;51.332;12.410;2022-09-24T03:33:45;11.70;99.90
34542;DHT22;20784;51.332;12.410;2022-09-24T03:38:40;11.70;99.90
34542;DHT22;20784;51.332;12.410;2022-09-24T03:41:07;11.70;99.90
34542;DHT22;20784;51.332;12.410;2022-09-24T03:43:33;11.70;99.90
34542;DHT22;20784;51.332;12.410;2022-09-24T03:46:03;11.70;99.90
34542;DHT22;20784;51.332;12.410;2022-09-24T03:48:33;11.60;99.90
34542;DHT22;20784;51.332;12.410;2022-09-24T03:51:10;11.70;99.90
34542;DHT22;20784;51.332;12.410;2022-09-24T03:53:37;11.60;99.90
34542;DHT22;20784;51.332;12.410;2022-09-24T03:56:04;11.60;99.90
34542;DHT22;20784;51.332;12.410;2022-09-24T03:58:31;11.60;99.90
34542;DHT22;20784;51.332;12.410;2022-09-24T04:01:07;11.60;99.90
34542;DHT22;20784;51.332;12.410;2022-09-24T04:03:33;11.60;99.90
34542;DHT22;20784;51.332;12.410;2022-09-24T04:06:00;11.60;99.90
34542;DHT22;20784;51.332;12.410;2022-09-24T04:08:26;11.60;99.90
34542;DHT22;20784;51.332;12.410;2022-09-24T04:10:52;11.60;99.90
34542;DHT22;20784;51.332;12.410;2022-09-24T04:13:18;11.60;99.90
34542;DHT22;20784;51.332;12.410;2022-09-24T04:15:44;11.70;99.90
34542;DHT22;20784;51.332;12.410;2022-09-24T04:18:13;11.60;99.90
34542;DHT22;20784;51.332;12.410;2022-09-24T04:20:39;11.60;99.90
34542;DHT22;20784;51.332;12.410;2022-09-24T04:23:06;11.50;99.90
34542;DHT22;20784;51.332;12.410;2022-09-24T04:25:32;11.40;99.90
34542;DHT22;20784;51.332;12.410;2022-09-24T04:28:06;11.30;99.90
34542;DHT22;20784;51.332;12.410;2022-09-24T04:30:33;11.40;99.90
34542;DHT22;20784;51.332;12.410;2022-09-24T04:33:00;11.40;99.90
34542;DHT22;20784;51.332;12.410;2022-09-24T04:35:28;11.50;99.90
34542;DHT22;20784;51.332;12.410;2022-09-24T04:37:57;11.40;99.90
34542;DHT22;20784;51.332;12.410;2022-09-24T04:40:23;11.40;99.90
34542;DHT22;20784;51.332;12.410;2022-09-24T04:42:49;11.40;99.90
34542;DHT22;20784;51.332;12.410;2022-09-24T04:45:18;11.30;99.90
34542;DHT22;20784;51.332;12.410;2022-09-24T04:47:48;11.30;99.90
34542;DHT22;20784;51.332;12.410;2022-09-24T04:50:28;11.30;99.90
34542;DHT22;20784;51.332;12.410;2022-09-24T04:52:57;11.30;99.90
34542;DHT22;20784;51.332;12.410;2022-09-24T04:55:23;11.40;99.90
34542;DHT22;20784;51.332;12.410;2022-09-24T04:57:49;11.30;99.90
34542;DHT22;20784;51.332;12.410;2022-09-24T05:00:18;11.30;99.90
34542;DHT22;20784;51.332;12.410;2022-09-24T05:02:44;11.20;99.90
34542;DHT22;20784;51.332;12.410;2022-09-24T05:05:11;11.10;99.90
34542;DHT22;20784;51.332;12.410;2022-09-24T05:07:38;11.10;99.90
34542;DHT22;20784;51.332;12.410;2022-09-24T05:10:04;11.10;99.90
34542;DHT22;20784;51.332;12.410;2022-09-24T05:12:31;11.10;99.90
34542;DHT22;20784;51.332;12.410;2022-09-24T05:14:57;11.00;99.90
34542;DHT22;20784;51.332;12.410;2022-09-24T05:17:23;11.00;99.90
34542;DHT22;20784;51.332;12.410;2022-09-24T05:19:48;11.00;99.90
34542;DHT22;20784;51.332;12.410;2022-09-24T05:22:14;11.00;99.90
34542;DHT22;20784;51.332;12.410;2022-09-24T05:24:39;10.90;99.90
34542;DHT22;20784;51.332;12.410;2022-09-24T05:27:08;10.90;99.90
34542;DHT22;20784;51.332;12.410;2022-09-24T05:29:40;11.00;99.90
34542;DHT22;20784;51.332;12.410;2022-09-24T05:32:15;10.90;99.90
34542;DHT22;20784;51.332;12.410;2022-09-24T05:34:42;10.90;99.90
34542;DHT22;20784;51.332;12.410;2022-09-24T05:37:12;10.90;99.90
34542;DHT22;20784;51.332;12.410;2022-09-24T05:39:38;10.90;99.90
34542;DHT22;20784;51.332;12.410;2022-09-24T05:42:04;10.80;99.90
34542;DHT22;20784;51.332;12.410;2022-09-24T05:44:30;10.80;99.90
34542;DHT22;20784;51.332;12.410;2022-09-24T05:46:56;10.80;99.90
34542;DHT22;20784;51.332;12.410;2022-09-24T05:49:22;10.90;99.90
34542;DHT22;20784;51.332;12.410;2022-09-24T05:51:48;10.90;99.90
34542;DHT22;20784;51.332;12.410;2022-09-24T05:54:17;10.90;99.90
34542;DHT22;20784;51.332;12.410;2022-09-24T05:56:46;10.90;99.90
34542;DHT22;20784;51.332;12.410;2022-09-24T05:59:12;10.90;99.90
34542;DHT22;20784;51.332;12.410;2022-09-24T06:01:59;10.90;99.90
34542;DHT22;20784;51.332;12.410;2022-09-24T06:04:25;11.00;99.90
34542;DHT22;20784;51.332;12.410;2022-09-24T06:06:52;10.90;99.90
34542;DHT22;20784;51.332;12.410;2022-09-24T06:09:17;11.00;99.90
34542;DHT22;20784;51.332;12.410;2022-09-24T06:11:43;11.00;99.90
34542;DHT22;20784;51.332;12.410;2022-09-24T06:14:10;11.10;99.90
34542;DHT22;20784;51.332;12.410;2022-09-24T06:16:36;11.10;99.90
34542;DHT22;20784;51.332;12.410;2022-09-24T06:19:02;11.10;99.90
34542;DHT22;20784;51.332;12.410;2022-09-24T06:21:27;11.20;99.90
34542;DHT22;20784;51.332;12.410;2022-09-24T06:23:56;11.10;99.90
34542;DHT22;20784;51.332;12.410;2022-09-24T06:26:21;11.20;99.90
34542;DHT22;20784;51.332;12.410;2022-09-24T06:28:49;11.30;99.90
34542;DHT22;20784;51.332;12.410;2022-09-24T06:31:17;11.30;99.90
34542;DHT22;20784;51.332;12.410;2022-09-24T06:33:46;11.40;99.90
34542;DHT22;20784;51.332;12.410;2022-09-24T06:36:24;11.40;99.90
34542;DHT22;20784;51.332;12.410;2022-09-24T06:38:51;11.60;99.90
34542;DHT22;20784;51.332;12.410;2022-09-24T06:41:17;11.70;99.90
34542;DHT22;20784;51.332;12.410;2022-09-24T06:43:42;11.80;99.90
34542;DHT22;20784;51.332;12.410;2022-09-24T06:46:08;11.80;99.90
34542;DHT22;20784;51.332;12.410;2022-09-24T06:48:34;12.10;99.90
34542;DHT22;20784;51.332;12.410;2022-09-24T06:51:03;12.20;99.90
34542;DHT22;20784;51.332;12.410;2022-09-24T06:53:29;12.30;99.90
34542;DHT22;20784;51.332;12.410;2022-09-24T06:55:56;12.40;99.90
34542;DHT22;20784;51.332;12.410;2022-09-24T06:58:23;12.60;99.90
34542;DHT22;20784;51.332;12.410;2022-09-24T07:00:50;12.80;99.90
34542;DHT22;20784;51.332;12.410;2022-09-24T07:03:24;12.80;99.90
34542;DHT22;20784;51.332;12.410;2022-09-24T07:05:52;12.70;99.90
34542;DHT22;20784;51.332;12.410;2022-09-24T07:08:18;12.70;99.90
34542;DHT22;20784;51.332;12.410;2022-09-24T07:10:44;12.80;99.90
34542;DHT22;20784;51.332;12.410;2022-09-24T07:13:20;12.80;99.90
34542;DHT22;20784;51.332;12.410;2022-09-24T07:15:50;12.90;99.90
34542;DHT22;20784;51.332;12.410;2022-09-24T07:18:25;13.00;99.90
34542;DHT22;20784;51.332;12.410;2022-09-24T07:20:54;13.20;99.90
34542;DHT22;20784;51.332;12.410;2022-09-24T07:23:23;13.20;99.90
34542;DHT22;20784;51.332;12.410;2022-09-24T07:25:53;13.40;99.90
34542;DHT22;20784;51.332;12.410;2022-09-24T07:28:19;13.40;99.90
34542;DHT22;20784;51.332;12.410;2022-09-24T07:30:58;13.50;99.90
34542;DHT22;20784;51.332;12.410;2022-09-24T07:33:24;13.50;99.90
34542;DHT22;20784;51.332;12.410;2022-09-24T07:35:49;13.40;99.90
34542;DHT22;20784;51.332;12.410;2022-09-24T07:38:15;13.50;99.90
34542;DHT22;20784;51.332;12.410;2022-09-24T07:40:41;13.60;99.90
34542;DHT22;20784;51.332;12.410;2022-09-24T07:43:06;13.70;99.90
34542;DHT22;20784;51.332;12.410;2022-09-24T07:45:42;13.80;99.90
34542;DHT22;20784;51.332;12.410;2022-09-24T07:48:08;14.00;99.90
34542;DHT22;20784;51.332;12.410;2022-09-24T07:50:38;14.10;99.90
34542;DHT22;20784;51.332;12.410;2022-09-24T07:53:04;14.20;99.90
34542;DHT22;20784;51.332;12.410;2022-09-24T07:55:33;14.40;99.90
34542;DHT22;20784;51.332;12.410;2022-09-24T07:58:06;14.50;99.90
34542;DHT22;20784;51.332;12.410;2022-09-24T08:00:33;14.60;99.90
34542;DHT22;20784;51.332;12.410;2022-09-24T08:03:00;14.50;99.90
34542;DHT22;20784;51.332;12.410;2022-09-24T08:05:26;14.50;99.90
34542;DHT22;20784;51.332;12.410;2022-09-24T08:07:56;14.50;99.90
34542;DHT22;20784;51.332;12.410;2022-09-24T08:10:23;14.50;99.90
34542;DHT22;20784;51.332;12.410;2022-09-24T08:12:49;14.60;99.90
34542;DHT22;20784;51.332;12.410;2022-09-24T08:15:18;14.60;99.90
34542;DHT22;20784;51.332;12.410;2022-09-24T08:17:44;14.50;99.90
34542;DHT22;20784;51.332;12.410;2022-09-24T08:20:10;14.50;99.90
34542;DHT22;20784;51.332;12.410;2022-09-24T08:22:37;14.40;99.90
34542;DHT22;20784;51.332;12.410;2022-09-24T08:25:07;14.40;99.90
34542;DHT22;20784;51.332;12.410;2022-09-24T08:27:33;14.40;99.90
34542;DHT22;20784;51.332;12.410;2022-09-24T08:30:07;14.50;99.90
34542;DHT22;20784;51.332;12.410;2022-09-24T08:32:32;14.50;99.90
34542;DHT22;20784;51.332;12.410;2022-09-24T08:34:58;14.70;99.90
34542;DHT22;20784;51.332;12.410;2022-09-24T08:37:25;14.90;99.90
34542;DHT22;20784;51.332;12.410;2022-09-24T08:39:51;15.20;99.90
34542;DHT22;20784;51.332;12.410;2022-09-24T08:42:38;15.20;99.90
34542;DHT22;20784;51.332;12.410;2022-09-24T08:45:07;15.50;99.90
34542;DHT22;20784;51.332;12.410;2022-09-24T08:48:10;15.80;99.90
34542;DHT22;20784;51.332;12.410;2022-09-24T08:50:46;16.20;99.90
34542;DHT22;20784;51.332;12.410;2022-09-24T08:53:21;16.50;99.90
34542;DHT22;20784;51.332;12.410;2022-09-24T08:55:54;16.70;99.90
34542;DHT22;20784;51.332;12.410;2022-09-24T09:03:56;18.00;99.90
34542;DHT22;20784;51.332;12.410;2022-09-24T09:09:45;18.50;99.90
34542;DHT22;20784;51.332;12.410;2022-09-24T09:12:26;18.30;99.90
34542;DHT22;20784;51.332;12.410;2022-09-24T09:15:02;18.50;99.90
34542;DHT22;20784;51.332;12.410;2022-09-24T09:20:39;18.50;99.90
34542;DHT22;20784;51.332;12.410;2022-09-24T09:23:33;18.80;99.90
34542;DHT22;20784;51.332;12.410;2022-09-24T09:26:02;19.20;99.90
34542;DHT22;20784;51.332;12.410;2022-09-24T09:28:29;19.50;99.90
34542;DHT22;20784;51.332;12.410;2022-09-24T09:33:44;19.80;99.90
34542;DHT22;20784;51.332;12.410;2022-09-24T09:36:41;20.10;99.90
34542;DHT22;20784;51.332;12.410;2022-09-24T09:44:42;21.10;99.90
34542;DHT22;20784;51.332;12.410;2022-09-24T09:49:47;21.50;99.90
34542;DHT22;20784;51.332;12.410;2022-09-24T09:52:19;21.80;99.90
34542;DHT22;20784;51.332;12.410;2022-09-24T09:54:48;22.30;99.90
34542;DHT22;20784;51.332;12.410;2022-09-24T09:57:16;22.60;99.90
34542;DHT22;20784;51.332;12.410;2022-09-24T09:59:53;23.00;99.90
34542;DHT22;20784;51.332;12.410;2022-09-24T10:02:36;23.50;99.90
34542;DHT22;20784;51.332;12.410;2022-09-24T10:05:20;24.10;99.90
34542;DHT22;20784;51.332;12.410;2022-09-24T10:07:46;24.60;99.90
34542;DHT22;20784;51.332;12.410;2022-09-24T10:10:20;24.60;99.90
34542;DHT22;20784;51.332;12.410;2022-09-24T10:13:08;25.00;99.90
34542;DHT22;20784;51.332;12.410;2022-09-24T10:15:38;24.90;99.90
34542;DHT22;20784;51.332;12.410;2022-09-24T10:18:04;24.90;99.90
34542;DHT22;20784;51.332;12.410;2022-09-24T10:20:31;24.90;99.90
34542;DHT22;20784;51.332;12.410;2022-09-24T10:23:16;24.90;99.90
34542;DHT22;20784;51.332;12.410;2022-09-24T10:26:00;25.40;99.90
34542;DHT22;20784;51.332;12.410;2022-09-24T10:28:26;26.10;99.90
34542;DHT22;20784;51.332;12.410;2022-09-24T10:31:15;26.50;99.90
34542;DHT22;20784;51.332;12.410;2022-09-24T10:33:44;26.40;99.90
34542;DHT22;20784;51.332;12.410;2022-09-24T10:36:30;26.60;99.90
34542;DHT22;20784;51.332;12.410;2022-09-24T10:39:03;27.00;99.90
34542;DHT22;20784;51.332;12.410;2022-09-24T10:41:30;27.00;99.90
34542;DHT22;20784;51.332;12.410;2022-09-24T10:44:05;27.00;99.90
34542;DHT22;20784;51.332;12.410;2022-09-24T10:49:49;27.20;99.90
34542;DHT22;20784;51.332;12.410;2022-09-24T10:52:39;27.40;99.70
34542;DHT22;20784;51.332;12.410;2022-09-24T10:55:35;27.70;98.80
34542;DHT22;20784;51.332;12.410;2022-09-24T11:06:01;27.70;96.00
34542;DHT22;20784;51.332;12.410;2022-09-24T11:14:12;28.10;93.70
34542;DHT22;20784;51.332;12.410;2022-09-24T11:20:03;28.40;91.00
34542;DHT22;20784;51.332;12.410;2022-09-24T11:30:39;28.00;91.40
34542;DHT22;20784;51.332;12.410;2022-09-24T11:33:37;28.00;90.90
34542;DHT22;20784;51.332;12.410;2022-09-24T11:39:19;27.50;92.70
34542;DHT22;20784;51.332;12.410;2022-09-24T11:55:55;26.00;94.00
34542;DHT22;20784;51.332;12.410;2022-09-24T11:58:30;25.20;93.50
34542;DHT22;20784;51.332;12.410;2022-09-24T12:01:33;24.60;94.00
34542;DHT22;20784;51.332;12.410;2022-09-24T12:04:14;23.90;95.30
34542;DHT22;20784;51.332;12.410;2022-09-24T12:06:55;24.40;95.60
34542;DHT22;20784;51.332;12.410;2022-09-24T12:09:29;24.50;96.40
34542;DHT22;20784;51.332;12.410;2022-09-24T12:12:12;24.60;95.70
34542;DHT22;20784;51.332;12.410;2022-09-24T12:17:54;24.20;96.30
34542;DHT22;20784;51.332;12.410;2022-09-24T12:20:27;24.20;96.80
34542;DHT22;20784;51.332;12.410;2022-09-24T12:23:01;24.00;97.30
34542;DHT22;20784;51.332;12.410;2022-09-24T12:25:33;23.80;98.00
34542;DHT22;20784;51.332;12.410;2022-09-24T12:28:20;23.60;99.10
34542;DHT22;20784;51.332;12.410;2022-09-24T12:31:19;23.50;98.90
34542;DHT22;20784;51.332;12.410;2022-09-24T12:34:18;23.30;99.00
34542;DHT22;20784;51.332;12.410;2022-09-24T12:37:01;23.30;99.90
34542;DHT22;20784;51.332;12.410;2022-09-24T12:42:19;23.30;99.90
34542;DHT22;20784;51.332;12.410;2022-09-24T12:44:54;23.30;99.90
34542;DHT22;20784;51.332;12.410;2022-09-24T12:47:51;23.50;99.90
34542;DHT22;20784;51.332;12.410;2022-09-24T12:50:24;23.60;99.20
34542;DHT22;20784;51.332;12.410;2022-09-24T12:53:00;23.80;99.90
34542;DHT22;20784;51.332;12.410;2022-09-24T12:55:30;24.10;99.20
34542;DHT22;20784;51.332;12.410;2022-09-24T12:58:04;24.40;98.40
34542;DHT22;20784;51.332;12.410;2022-09-24T13:00:37;24.60;97.20
34542;DHT22;20784;51.332;12.410;2022-09-24T13:03:29;24.90;97.30
34542;DHT22;20784;51.332;12.410;2022-09-24T13:05:52;25.10;96.90
34542;DHT22;20784;51.332;12.410;2022-09-24T13:08:35;25.20;96.10
34542;DHT22;20784;51.332;12.410;2022-09-24T13:11:24;24.70;96.50
34542;DHT22;20784;51.332;12.410;2022-09-24T13:16:49;24.60;96.10
34542;DHT22;20784;51.332;12.410;2022-09-24T13:19:38;24.50;97.80
34542;DHT22;20784;51.332;12.410;2022-09-24T13:22:24;24.30;97.30
34542;DHT22;20784;51.332;12.410;2022-09-24T13:25:13;24.40;97.00
34542;DHT22;20784;51.332;12.410;2022-09-24T13:27:42;24.50;96.80
34542;DHT22;20784;51.332;12.410;2022-09-24T13:33:09;24.60;96.40
34542;DHT22;20784;51.332;12.410;2022-09-24T13:35:46;24.20;95.50
34542;DHT22;20784;51.332;12.410;2022-09-24T13:38:27;23.90;96.80
34542;DHT22;20784;51.332;12.410;2022-09-24T13:40:59;24.10;96.10
34542;DHT22;20784;51.332;12.410;2022-09-24T13:43:42;24.20;95.70
34542;DHT22;20784;51.332;12.410;2022-09-24T13:46:16;23.90;95.30
34542;DHT22;20784;51.332;12.410;2022-09-24T13:48:55;23.60;96.50
34542;DHT22;20784;51.332;12.410;2022-09-24T13:51:26;23.50;96.00
34542;DHT22;20784;51.332;12.410;2022-09-24T13:56:29;23.00;96.40
34542;DHT22;20784;51.332;12.410;2022-09-24T13:59:10;22.80;97.30
34542;DHT22;20784;51.332;12.410;2022-09-24T14:01:39;22.70;97.70
34542;DHT22;20784;51.332;12.410;2022-09-24T14:04:17;22.60;97.40
34542;DHT22;20784;51.332;12.410;2022-09-24T14:06:48;22.50;98.00
34542;DHT22;20784;51.332;12.410;2022-09-24T14:11:48;22.50;98.10
34542;DHT22;20784;51.332;12.410;2022-09-24T14:14:17;22.40;98.20
34542;DHT22;20784;51.332;12.410;2022-09-24T14:16:44;22.50;98.40
34542;DHT22;20784;51.332;12.410;2022-09-24T14:19:14;22.50;97.70
34542;DHT22;20784;51.332;12.410;2022-09-24T14:21:53;22.40;98.00
34542;DHT22;20784;51.332;12.410;2022-09-24T14:24:33;22.20;98.00
34542;DHT22;20784;51.332;12.410;2022-09-24T14:27:07;21.80;99.00
34542;DHT22;20784;51.332;12.410;2022-09-24T14:32:32;21.60;99.70
34542;DHT22;20784;51.332;12.410;2022-09-24T14:35:14;21.40;99.70
34542;DHT22;20784;51.332;12.410;2022-09-24T14:37:53;21.30;99.90
34542;DHT22;20784;51.332;12.410;2022-09-24T14:44:01;21.10;99.90
34542;DHT22;20784;51.332;12.410;2022-09-24T14:46:37;21.10;99.90
34542;DHT22;20784;51.332;12.410;2022-09-24T14:49:24;21.10;99.90
34542;DHT22;20784;51.332;12.410;2022-09-24T14:51:55;21.00;99.90
34542;DHT22;20784;51.332;12.410;2022-09-24T14:54:42;21.00;99.90
34542;DHT22;20784;51.332;12.410;2022-09-24T14:59:44;20.90;99.90
34542;DHT22;20784;51.332;12.410;2022-09-24T15:02:31;20.80;99.90
34542;DHT22;20784;51.332;12.410;2022-09-24T15:05:04;20.80;99.90
34542;DHT22;20784;51.332;12.410;2022-09-24T15:07:32;21.00;99.90
34542;DHT22;20784;51.332;12.410;2022-09-24T15:09:59;21.10;99.90
34542;DHT22;20784;51.332;12.410;2022-09-24T15:12:28;21.10;99.90
34542;DHT22;20784;51.332;12.410;2022-09-24T15:15:26;21.10;99.90
34542;DHT22;20784;51.332;12.410;2022-09-24T15:18:31;21.10;99.90
34542;DHT22;20784;51.332;12.410;2022-09-24T15:21:01;21.10;99.90
34542;DHT22;20784;51.332;12.410;2022-09-24T15:23:47;21.00;99.90
34542;DHT22;20784;51.332;12.410;2022-09-24T15:29:46;20.80;99.90
34542;DHT22;20784;51.332;12.410;2022-09-24T15:32:29;20.70;99.90
34542;DHT22;20784;51.332;12.410;2022-09-24T15:34:56;20.70;99.90
34542;DHT22;20784;51.332;12.410;2022-09-24T15:37:25;20.70;99.90
34542;DHT22;20784;51.332;12.410;2022-09-24T15:40:04;20.60;99.90
34542;DHT22;20784;51.332;12.410;2022-09-24T15:42:30;20.50;99.90
34542;DHT22;20784;51.332;12.410;2022-09-24T15:44:58;20.40;99.90
34542;DHT22;20784;51.332;12.410;2022-09-24T15:47:33;20.40;99.90
34542;DHT22;20784;51.332;12.410;2022-09-24T15:50:17;20.30;99.90
34542;DHT22;20784;51.332;12.410;2022-09-24T15:53:01;20.20;99.90
34542;DHT22;20784;51.332;12.410;2022-09-24T15:55:31;20.10;99.90
34542;DHT22;20784;51.332;12.410;2022-09-24T15:57:58;20.10;99.90
34542;DHT22;20784;51.332;12.410;2022-09-24T16:00:28;20.10;99.90
34542;DHT22;20784;51.332;12.410;2022-09-24T16:02:55;19.90;99.90
34542;DHT22;20784;51.332;12.410;2022-09-24T16:05:24;19.80;99.90
34542;DHT22;20784;51.332;12.410;2022-09-24T16:08:20;19.80;99.90
34542;DHT22;20784;51.332;12.410;2022-09-24T16:11:47;19.60;99.90
34542;DHT22;20784;51.332;12.410;2022-09-24T16:17:09;19.50;99.90
34542;DHT22;20784;51.332;12.410;2022-09-24T16:19:34;19.30;99.90
34542;DHT22;20784;51.332;12.410;2022-09-24T16:22:00;19.30;99.90
34542;DHT22;20784;51.332;12.410;2022-09-24T16:24:25;19.20;99.90
34542;DHT22;20784;51.332;12.410;2022-09-24T16:26:51;19.30;99.90
34542;DHT22;20784;51.332;12.410;2022-09-24T16:29:17;19.20;99.90
34542;DHT22;20784;51.332;12.410;2022-09-24T16:31:43;19.20;99.90
34542;DHT22;20784;51.332;12.410;2022-09-24T16:34:10;19.20;99.90
34542;DHT22;20784;51.332;12.410;2022-09-24T16:36:36;19.10;99.90
34542;DHT22;20784;51.332;12.410;2022-09-24T16:39:05;19.00;99.90
34542;DHT22;20784;51.332;12.410;2022-09-24T16:41:30;19.00;99.90
34542;DHT22;20784;51.332;12.410;2022-09-24T16:44:02;18.90;99.90
34542;DHT22;20784;51.332;12.410;2022-09-24T16:46:28;18.90;99.90
34542;DHT22;20784;51.332;12.410;2022-09-24T16:48:53;18.80;99.90
34542;DHT22;20784;51.332;12.410;2022-09-24T16:51:19;18.70;99.90
34542;DHT22;20784;51.332;12.410;2022-09-24T16:53:45;18.70;99.90
34542;DHT22;20784;51.332;12.410;2022-09-24T16:56:15;18.60;99.90
34542;DHT22;20784;51.332;12.410;2022-09-24T16:58:43;18.60;99.90
34542;DHT22;20784;51.332;12.410;2022-09-24T17:01:11;18.50;99.90
34542;DHT22;20784;51.332;12.410;2022-09-24T17:03:37;18.50;99.90
34542;DHT22;20784;51.332;12.410;2022-09-24T17:06:18;18.50;99.90
34542;DHT22;20784;51.332;12.410;2022-09-24T17:08:44;18.40;99.90
34542;DHT22;20784;51.332;12.410;2022-09-24T17:11:29;18.30;99.90
34542;DHT22;20784;51.332;12.410;2022-09-24T17:13:54;18.30;99.90
34542;DHT22;20784;51.332;12.410;2022-09-24T17:16:20;18.20;99.90
34542;DHT22;20784;51.332;12.410;2022-09-24T17:18:46;18.30;99.90
34542;DHT22;20784;51.332;12.410;2022-09-24T17:21:12;18.20;99.90
34542;DHT22;20784;51.332;12.410;2022-09-24T17:23:39;18.10;99.90
34542;DHT22;20784;51.332;12.410;2022-09-24T17:26:10;18.10;99.90
34542;DHT22;20784;51.332;12.410;2022-09-24T17:28:36;18.10;99.90
34542;DHT22;20784;51.332;12.410;2022-09-24T17:31:03;18.00;99.90
34542;DHT22;20784;51.332;12.410;2022-09-24T17:33:29;17.90;99.90
34542;DHT22;20784;51.332;12.410;2022-09-24T17:36:00;17.90;99.90
34542;DHT22;20784;51.332;12.410;2022-09-24T17:38:26;17.90;99.90
34542;DHT22;20784;51.332;12.410;2022-09-24T17:40:58;17.80;99.90
34542;DHT22;20784;51.332;12.410;2022-09-24T17:43:25;17.80;99.90
34542;DHT22;20784;51.332;12.410;2022-09-24T17:45:57;17.80;99.90
34542;DHT22;20784;51.332;12.410;2022-09-24T17:48:26;17.80;99.90